sensor_id;sensor_type;location;lat;lon;timestamp;P1;durP1;ratioP1;P2;durP2;ratioP2
40286;SDS011;25998;46.604;13.610;2022-11-13T00:02:41;13.52;;;4.60;;
40286;SDS011;25998;46.604;13.610;2022-11-13T00:06:01;30.13;;;6.07;;
40286;SDS011;25998;46.604;13.610;2022-11-13T00:09:12;5.13;;;4.05;;
40286;SDS011;25998;46.604;13.610;2022-11-13T00:12:23;6.20;;;4.38;;
40286;SDS011;25998;46.604;13.610;2022-11-13T00:15:34;3.88;;;3.38;;
40286;SDS011;25998;46.604;13.610;2022-11-13T00:18:45;8.70;;;6.55;;
40286;SDS011;25998;46.604;13.610;2022-11-13T00:21:57;10.32;;;6.97;;
40286;SDS011;25998;46.604;13.610;2022-11-13T00:25:08;12.43;;;7.22;;
40286;SDS011;25998;46.604;13.610;2022-11-13T00:28:19;79.93;;;8.35;;
40286;SDS011;25998;46.604;13.610;2022-11-13T00:31:30;11.27;;;3.72;;
40286;SDS011;25998;46.604;13.610;2022-11-13T00:34:41;5.05;;;3.78;;
40286;SDS011;25998;46.604;13.610;2022-11-13T00:37:53;3.45;;;3.00;;
40286;SDS011;25998;46.604;13.610;2022-11-13T00:41:04;7.78;;;4.38;;
40286;SDS011;25998;46.604;13.610;2022-11-13T00:44:14;8.23;;;6.15;;
40286;SDS011;25998;46.604;13.610;2022-11-13T00:47:25;9.20;;;6.18;;
40286;SDS011;25998;46.604;13.610;2022-11-13T00:50:36;15.32;;;13.73;;
40286;SDS011;25998;46.604;13.610;2022-11-13T00:53:47;13.77;;;9.95;;
40286;SDS011;25998;46.604;13.610;2022-11-13T00:56:58;126.47;;;13.15;;
40286;SDS011;25998;46.604;13.610;2022-11-13T01:00:09;48.25;;;8.82;;
40286;SDS011;25998;46.604;13.610;2022-11-13T01:03:20;62.00;;;11.90;;
40286;SDS011;25998;46.604;13.610;2022-11-13T01:06:31;47.00;;;8.75;;
40286;SDS011;25998;46.604;13.610;2022-11-13T01:09:42;15.40;;;6.80;;
40286;SDS011;25998;46.604;13.610;2022-11-13T01:12:52;21.65;;;6.15;;
40286;SDS011;25998;46.604;13.610;2022-11-13T01:16:04;63.03;;;6.57;;
40286;SDS011;25998;46.604;13.610;2022-11-13T01:19:16;61.88;;;7.07;;
40286;SDS011;25998;46.604;13.610;2022-11-13T01:22:27;8.13;;;3.35;;
40286;SDS011;25998;46.604;13.610;2022-11-13T01:25:38;10.48;;;4.22;;
40286;SDS011;25998;46.604;13.610;2022-11-13T01:28:49;5.60;;;3.63;;
40286;SDS011;25998;46.604;13.610;2022-11-13T01:32:00;4.53;;;3.10;;
40286;SDS011;25998;46.604;13.610;2022-11-13T01:35:11;3.75;;;3.10;;
40286;SDS011;25998;46.604;13.610;2022-11-13T01:38:22;5.35;;;3.53;;
40286;SDS011;25998;46.604;13.610;2022-11-13T01:41:33;8.30;;;5.55;;
40286;SDS011;25998;46.604;13.610;2022-11-13T01:44:54;7.78;;;4.90;;
40286;SDS011;25998;46.604;13.610;2022-11-13T01:48:07;5.97;;;4.28;;
40286;SDS011;25998;46.604;13.610;2022-11-13T01:51:54;14.85;;;4.53;;
40286;SDS011;25998;46.604;13.610;2022-11-13T01:55:06;5.55;;;3.45;;
40286;SDS011;25998;46.604;13.610;2022-11-13T01:58:21;4.57;;;3.30;;
40286;SDS011;25998;46.604;13.610;2022-11-13T02:01:32;4.40;;;3.75;;
40286;SDS011;25998;46.604;13.610;2022-11-13T02:04:44;4.53;;;3.45;;
40286;SDS011;25998;46.604;13.610;2022-11-13T02:07:55;6.60;;;3.30;;
40286;SDS011;25998;46.604;13.610;2022-11-13T02:11:06;10.18;;;3.55;;
40286;SDS011;25998;46.604;13.610;2022-11-13T02:14:17;5.65;;;3.72;;
40286;SDS011;25998;46.604;13.610;2022-11-13T02:17:41;5.00;;;3.17;;
40286;SDS011;25998;46.604;13.610;2022-11-13T02:21:00;3.53;;;3.03;;
40286;SDS011;25998;46.604;13.610;2022-11-13T02:27:29;5.13;;;3.58;;
40286;SDS011;25998;46.604;13.610;2022-11-13T02:30:50;3.67;;;2.83;;
40286;SDS011;25998;46.604;13.610;2022-11-13T02:34:01;4.05;;;3.30;;
40286;SDS011;25998;46.604;13.610;2022-11-13T02:37:12;6.63;;;3.78;;
40286;SDS011;25998;46.604;13.610;2022-11-13T02:40:23;5.63;;;4.15;;
40286;SDS011;25998;46.604;13.610;2022-11-13T02:43:35;5.47;;;3.72;;
40286;SDS011;25998;46.604;13.610;2022-11-13T02:46:45;5.72;;;4.63;;
40286;SDS011;25998;46.604;13.610;2022-11-13T02:49:56;6.38;;;3.67;;
40286;SDS011;25998;46.604;13.610;2022-11-13T02:53:07;4.07;;;3.30;;
40286;SDS011;25998;46.604;13.610;2022-11-13T02:56:18;64.65;;;7.82;;
40286;SDS011;25998;46.604;13.610;2022-11-13T02:59:29;342.35;;;22.45;;
40286;SDS011;25998;46.604;13.610;2022-11-13T03:02:40;111.90;;;8.30;;
40286;SDS011;25998;46.604;13.610;2022-11-13T03:05:51;223.98;;;16.73;;
40286;SDS011;25998;46.604;13.610;2022-11-13T03:09:02;126.53;;;9.98;;
40286;SDS011;25998;46.604;13.610;2022-11-13T03:12:13;65.43;;;5.82;;
40286;SDS011;25998;46.604;13.610;2022-11-13T03:15:24;55.90;;;5.05;;
40286;SDS011;25998;46.604;13.610;2022-11-13T03:18:34;73.47;;;6.82;;
40286;SDS011;25998;46.604;13.610;2022-11-13T03:21:45;3.00;;;2.30;;
40286;SDS011;25998;46.604;13.610;2022-11-13T03:24:56;39.15;;;4.43;;
40286;SDS011;25998;46.604;13.610;2022-11-13T03:28:07;6.65;;;3.15;;
40286;SDS011;25998;46.604;13.610;2022-11-13T03:31:18;4.95;;;2.75;;
40286;SDS011;25998;46.604;13.610;2022-11-13T03:34:28;45.30;;;4.65;;
40286;SDS011;25998;46.604;13.610;2022-11-13T03:37:39;10.43;;;2.80;;
40286;SDS011;25998;46.604;13.610;2022-11-13T03:40:50;73.85;;;7.43;;
40286;SDS011;25998;46.604;13.610;2022-11-13T03:44:01;44.47;;;4.10;;
40286;SDS011;25998;46.604;13.610;2022-11-13T03:47:12;65.07;;;5.32;;
40286;SDS011;25998;46.604;13.610;2022-11-13T03:50:23;7.40;;;2.70;;
40286;SDS011;25998;46.604;13.610;2022-11-13T03:53:34;49.35;;;4.40;;
40286;SDS011;25998;46.604;13.610;2022-11-13T03:56:45;93.30;;;7.88;;
40286;SDS011;25998;46.604;13.610;2022-11-13T03:59:56;14.23;;;3.28;;
40286;SDS011;25998;46.604;13.610;2022-11-13T04:03:07;23.92;;;3.92;;
40286;SDS011;25998;46.604;13.610;2022-11-13T04:06:18;2.90;;;2.30;;
40286;SDS011;25998;46.604;13.610;2022-11-13T04:09:31;35.60;;;4.93;;
40286;SDS011;25998;46.604;13.610;2022-11-13T04:12:42;7.30;;;2.80;;
40286;SDS011;25998;46.604;13.610;2022-11-13T04:15:53;7.05;;;2.72;;
40286;SDS011;25998;46.604;13.610;2022-11-13T04:19:03;11.25;;;2.90;;
40286;SDS011;25998;46.604;13.610;2022-11-13T04:22:15;12.45;;;2.78;;
40286;SDS011;25998;46.604;13.610;2022-11-13T04:25:26;33.08;;;3.65;;
40286;SDS011;25998;46.604;13.610;2022-11-13T04:28:37;54.20;;;4.88;;
40286;SDS011;25998;46.604;13.610;2022-11-13T04:31:47;209.48;;;13.48;;
40286;SDS011;25998;46.604;13.610;2022-11-13T04:34:58;299.35;;;19.60;;
40286;SDS011;25998;46.604;13.610;2022-11-13T04:38:09;134.23;;;9.25;;
40286;SDS011;25998;46.604;13.610;2022-11-13T04:41:21;175.40;;;12.15;;
40286;SDS011;25998;46.604;13.610;2022-11-13T04:44:50;73.97;;;6.15;;
40286;SDS011;25998;46.604;13.610;2022-11-13T04:48:01;14.48;;;3.20;;
40286;SDS011;25998;46.604;13.610;2022-11-13T04:51:12;25.80;;;3.50;;
40286;SDS011;25998;46.604;13.610;2022-11-13T04:54:23;3.28;;;2.40;;
40286;SDS011;25998;46.604;13.610;2022-11-13T04:57:34;5.57;;;2.83;;
40286;SDS011;25998;46.604;13.610;2022-11-13T05:00:45;22.30;;;4.00;;
40286;SDS011;25998;46.604;13.610;2022-11-13T05:03:56;11.52;;;2.80;;
40286;SDS011;25998;46.604;13.610;2022-11-13T05:07:06;11.15;;;2.97;;
40286;SDS011;25998;46.604;13.610;2022-11-13T05:10:17;60.22;;;6.75;;
40286;SDS011;25998;46.604;13.610;2022-11-13T05:13:32;13.32;;;2.90;;
40286;SDS011;25998;46.604;13.610;2022-11-13T05:16:44;3.70;;;2.45;;
40286;SDS011;25998;46.604;13.610;2022-11-13T05:19:55;16.38;;;3.08;;
40286;SDS011;25998;46.604;13.610;2022-11-13T05:23:06;9.27;;;2.70;;
40286;SDS011;25998;46.604;13.610;2022-11-13T05:26:17;59.20;;;6.05;;
40286;SDS011;25998;46.604;13.610;2022-11-13T05:29:28;139.30;;;10.13;;
40286;SDS011;25998;46.604;13.610;2022-11-13T05:32:39;11.68;;;2.38;;
40286;SDS011;25998;46.604;13.610;2022-11-13T05:35:50;107.90;;;7.88;;
40286;SDS011;25998;46.604;13.610;2022-11-13T05:39:01;100.13;;;8.52;;
40286;SDS011;25998;46.604;13.610;2022-11-13T05:42:13;10.20;;;2.17;;
40286;SDS011;25998;46.604;13.610;2022-11-13T05:45:23;183.25;;;12.10;;
40286;SDS011;25998;46.604;13.610;2022-11-13T05:48:35;48.72;;;4.40;;
40286;SDS011;25998;46.604;13.610;2022-11-13T05:51:46;131.48;;;8.18;;
40286;SDS011;25998;46.604;13.610;2022-11-13T05:54:57;85.22;;;5.70;;
40286;SDS011;25998;46.604;13.610;2022-11-13T05:58:07;47.63;;;3.92;;
40286;SDS011;25998;46.604;13.610;2022-11-13T06:01:20;117.53;;;9.15;;
40286;SDS011;25998;46.604;13.610;2022-11-13T06:04:34;101.22;;;7.15;;
40286;SDS011;25998;46.604;13.610;2022-11-13T06:07:47;8.85;;;2.42;;
40286;SDS011;25998;46.604;13.610;2022-11-13T06:11:00;3.08;;;1.90;;
40286;SDS011;25998;46.604;13.610;2022-11-13T06:14:12;25.85;;;2.70;;
40286;SDS011;25998;46.604;13.610;2022-11-13T06:17:23;64.82;;;4.78;;
40286;SDS011;25998;46.604;13.610;2022-11-13T06:20:34;167.15;;;11.32;;
40286;SDS011;25998;46.604;13.610;2022-11-13T06:23:46;19.13;;;2.88;;
40286;SDS011;25998;46.604;13.610;2022-11-13T06:26:57;52.75;;;4.60;;
40286;SDS011;25998;46.604;13.610;2022-11-13T06:30:08;89.20;;;7.03;;
40286;SDS011;25998;46.604;13.610;2022-11-13T06:33:19;11.02;;;2.20;;
40286;SDS011;25998;46.604;13.610;2022-11-13T06:36:31;69.03;;;5.15;;
40286;SDS011;25998;46.604;13.610;2022-11-13T06:39:44;23.92;;;2.72;;
40286;SDS011;25998;46.604;13.610;2022-11-13T06:42:55;54.80;;;4.80;;
40286;SDS011;25998;46.604;13.610;2022-11-13T06:46:08;34.97;;;4.18;;
40286;SDS011;25998;46.604;13.610;2022-11-13T06:49:21;225.70;;;15.02;;
40286;SDS011;25998;46.604;13.610;2022-11-13T06:52:32;24.17;;;3.67;;
40286;SDS011;25998;46.604;13.610;2022-11-13T06:55:44;184.82;;;11.70;;
40286;SDS011;25998;46.604;13.610;2022-11-13T06:58:56;43.58;;;5.20;;
40286;SDS011;25998;46.604;13.610;2022-11-13T07:02:07;3.33;;;2.30;;
40286;SDS011;25998;46.604;13.610;2022-11-13T07:05:20;3.45;;;2.83;;
40286;SDS011;25998;46.604;13.610;2022-11-13T07:08:31;5.47;;;3.55;;
40286;SDS011;25998;46.604;13.610;2022-11-13T07:11:42;5.85;;;3.35;;
40286;SDS011;25998;46.604;13.610;2022-11-13T07:14:52;3.92;;;2.95;;
40286;SDS011;25998;46.604;13.610;2022-11-13T07:18:04;98.38;;;9.32;;
40286;SDS011;25998;46.604;13.610;2022-11-13T07:21:16;151.15;;;17.38;;
40286;SDS011;25998;46.604;13.610;2022-11-13T07:24:26;103.18;;;10.23;;
40286;SDS011;25998;46.604;13.610;2022-11-13T07:27:42;62.38;;;8.07;;
40286;SDS011;25998;46.604;13.610;2022-11-13T07:30:57;409.67;;;28.05;;
40286;SDS011;25998;46.604;13.610;2022-11-13T07:34:08;439.10;;;28.10;;
40286;SDS011;25998;46.604;13.610;2022-11-13T07:37:19;65.50;;;6.38;;
40286;SDS011;25998;46.604;13.610;2022-11-13T07:40:30;156.57;;;13.35;;
40286;SDS011;25998;46.604;13.610;2022-11-13T07:43:41;81.03;;;6.97;;
40286;SDS011;25998;46.604;13.610;2022-11-13T07:46:51;62.33;;;5.93;;
40286;SDS011;25998;46.604;13.610;2022-11-13T07:50:02;266.73;;;18.92;;
40286;SDS011;25998;46.604;13.610;2022-11-13T07:53:13;160.25;;;12.07;;
40286;SDS011;25998;46.604;13.610;2022-11-13T07:56:25;139.32;;;8.80;;
40286;SDS011;25998;46.604;13.610;2022-11-13T07:59:36;5.63;;;2.72;;
40286;SDS011;25998;46.604;13.610;2022-11-13T08:02:47;3.75;;;3.03;;
40286;SDS011;25998;46.604;13.610;2022-11-13T08:06:01;6.63;;;3.20;;
40286;SDS011;25998;46.604;13.610;2022-11-13T08:09:14;12.18;;;5.65;;
40286;SDS011;25998;46.604;13.610;2022-11-13T08:12:24;18.13;;;9.45;;
40286;SDS011;25998;46.604;13.610;2022-11-13T08:15:35;10.85;;;7.22;;
40286;SDS011;25998;46.604;13.610;2022-11-13T08:18:46;175.88;;;18.73;;
40286;SDS011;25998;46.604;13.610;2022-11-13T08:21:57;93.50;;;13.95;;
40286;SDS011;25998;46.604;13.610;2022-11-13T08:25:08;49.45;;;11.18;;
40286;SDS011;25998;46.604;13.610;2022-11-13T08:28:19;271.92;;;22.40;;
40286;SDS011;25998;46.604;13.610;2022-11-13T08:31:30;138.25;;;15.90;;
40286;SDS011;25998;46.604;13.610;2022-11-13T08:34:41;20.10;;;8.20;;
40286;SDS011;25998;46.604;13.610;2022-11-13T08:37:51;12.23;;;6.88;;
40286;SDS011;25998;46.604;13.610;2022-11-13T08:41:03;11.25;;;6.30;;
40286;SDS011;25998;46.604;13.610;2022-11-13T08:44:15;10.02;;;6.88;;
40286;SDS011;25998;46.604;13.610;2022-11-13T08:47:26;8.85;;;6.95;;
40286;SDS011;25998;46.604;13.610;2022-11-13T08:50:38;22.15;;;9.73;;
40286;SDS011;25998;46.604;13.610;2022-11-13T08:53:49;379.80;;;27.63;;
40286;SDS011;25998;46.604;13.610;2022-11-13T08:57:00;337.23;;;24.25;;
40286;SDS011;25998;46.604;13.610;2022-11-13T09:00:11;147.57;;;13.68;;
40286;SDS011;25998;46.604;13.610;2022-11-13T09:03:23;290.25;;;22.02;;
40286;SDS011;25998;46.604;13.610;2022-11-13T09:06:33;203.82;;;16.77;;
40286;SDS011;25998;46.604;13.610;2022-11-13T09:09:44;232.27;;;19.33;;
40286;SDS011;25998;46.604;13.610;2022-11-13T09:12:59;285.33;;;22.95;;
40286;SDS011;25998;46.604;13.610;2022-11-13T09:16:11;280.95;;;22.50;;
40286;SDS011;25998;46.604;13.610;2022-11-13T09:19:23;159.20;;;14.27;;
40286;SDS011;25998;46.604;13.610;2022-11-13T09:22:34;149.13;;;16.60;;
40286;SDS011;25998;46.604;13.610;2022-11-13T09:25:45;45.15;;;10.88;;
40286;SDS011;25998;46.604;13.610;2022-11-13T09:28:56;101.93;;;14.32;;
40286;SDS011;25998;46.604;13.610;2022-11-13T09:32:07;190.30;;;16.80;;
40286;SDS011;25998;46.604;13.610;2022-11-13T09:35:18;646.58;;;50.50;;
40286;SDS011;25998;46.604;13.610;2022-11-13T09:38:42;177.18;;;18.15;;
40286;SDS011;25998;46.604;13.610;2022-11-13T09:45:19;470.63;;;34.85;;
40286;SDS011;25998;46.604;13.610;2022-11-13T09:51:53;76.72;;;12.73;;
40286;SDS011;25998;46.604;13.610;2022-11-13T09:55:10;61.83;;;11.82;;
40286;SDS011;25998;46.604;13.610;2022-11-13T09:58:27;35.00;;;10.05;;
40286;SDS011;25998;46.604;13.610;2022-11-13T10:01:57;12.93;;;8.80;;
40286;SDS011;25998;46.604;13.610;2022-11-13T10:05:20;14.52;;;10.45;;
40286;SDS011;25998;46.604;13.610;2022-11-13T10:08:52;27.30;;;11.80;;
40286;SDS011;25998;46.604;13.610;2022-11-13T10:12:25;43.95;;;15.05;;
40286;SDS011;25998;46.604;13.610;2022-11-13T10:15:40;104.03;;;20.63;;
40286;SDS011;25998;46.604;13.610;2022-11-13T10:18:53;34.83;;;13.30;;
40286;SDS011;25998;46.604;13.610;2022-11-13T10:33:49;18.25;;;14.23;;
40286;SDS011;25998;46.604;13.610;2022-11-13T10:40:27;23.60;;;15.18;;
40286;SDS011;25998;46.604;13.610;2022-11-13T10:47:16;23.30;;;17.75;;
40286;SDS011;25998;46.604;13.610;2022-11-13T10:50:29;26.27;;;17.35;;
40286;SDS011;25998;46.604;13.610;2022-11-13T10:53:41;25.75;;;17.73;;
40286;SDS011;25998;46.604;13.610;2022-11-13T10:57:00;31.60;;;17.73;;
40286;SDS011;25998;46.604;13.610;2022-11-13T11:00:24;43.25;;;18.77;;
40286;SDS011;25998;46.604;13.610;2022-11-13T11:03:49;23.67;;;19.15;;
40286;SDS011;25998;46.604;13.610;2022-11-13T11:07:09;25.05;;;17.92;;
40286;SDS011;25998;46.604;13.610;2022-11-13T11:10:33;22.52;;;17.45;;
40286;SDS011;25998;46.604;13.610;2022-11-13T11:13:46;22.08;;;17.25;;
40286;SDS011;25998;46.604;13.610;2022-11-13T11:17:00;22.30;;;18.35;;
40286;SDS011;25998;46.604;13.610;2022-11-13T11:20:38;26.83;;;17.92;;
40286;SDS011;25998;46.604;13.610;2022-11-13T11:28:26;19.52;;;16.52;;
40286;SDS011;25998;46.604;13.610;2022-11-13T11:35:16;18.60;;;16.60;;
40286;SDS011;25998;46.604;13.610;2022-11-13T11:38:39;21.60;;;16.90;;
40286;SDS011;25998;46.604;13.610;2022-11-13T11:42:09;20.30;;;16.85;;
40286;SDS011;25998;46.604;13.610;2022-11-13T11:48:02;21.17;;;17.35;;
40286;SDS011;25998;46.604;13.610;2022-11-13T11:51:21;19.42;;;15.95;;
40286;SDS011;25998;46.604;13.610;2022-11-13T11:55:11;20.98;;;15.95;;
40286;SDS011;25998;46.604;13.610;2022-11-13T13:52:52;21.15;;;17.75;;
40286;SDS011;25998;46.604;13.610;2022-11-13T13:56:08;21.20;;;17.95;;
40286;SDS011;25998;46.604;13.610;2022-11-13T13:59:22;21.17;;;18.90;;
40286;SDS011;25998;46.604;13.610;2022-11-13T14:06:18;20.15;;;17.10;;
40286;SDS011;25998;46.604;13.610;2022-11-13T14:09:31;20.50;;;17.48;;
40286;SDS011;25998;46.604;13.610;2022-11-13T14:12:42;19.65;;;17.70;;
40286;SDS011;25998;46.604;13.610;2022-11-13T14:16:01;20.15;;;17.83;;
40286;SDS011;25998;46.604;13.610;2022-11-13T14:19:14;20.45;;;17.25;;
40286;SDS011;25998;46.604;13.610;2022-11-13T14:22:25;18.98;;;16.92;;
40286;SDS011;25998;46.604;13.610;2022-11-13T14:25:36;21.30;;;18.23;;
40286;SDS011;25998;46.604;13.610;2022-11-13T14:28:54;21.67;;;16.77;;
40286;SDS011;25998;46.604;13.610;2022-11-13T14:32:12;20.02;;;15.93;;
40286;SDS011;25998;46.604;13.610;2022-11-13T14:35:31;18.73;;;16.65;;
40286;SDS011;25998;46.604;13.610;2022-11-13T14:38:43;19.27;;;16.85;;
40286;SDS011;25998;46.604;13.610;2022-11-13T14:41:57;21.35;;;17.83;;
40286;SDS011;25998;46.604;13.610;2022-11-13T14:45:19;19.52;;;17.35;;
40286;SDS011;25998;46.604;13.610;2022-11-13T14:48:34;18.70;;;16.63;;
40286;SDS011;25998;46.604;13.610;2022-11-13T14:51:52;21.58;;;18.02;;
40286;SDS011;25998;46.604;13.610;2022-11-13T14:55:05;20.50;;;17.27;;
40286;SDS011;25998;46.604;13.610;2022-11-13T14:58:25;19.42;;;17.42;;
40286;SDS011;25998;46.604;13.610;2022-11-13T15:01:52;20.63;;;17.35;;
40286;SDS011;25998;46.604;13.610;2022-11-13T15:05:06;19.95;;;17.50;;
40286;SDS011;25998;46.604;13.610;2022-11-13T15:08:17;23.30;;;17.45;;
40286;SDS011;25998;46.604;13.610;2022-11-13T15:11:28;19.17;;;16.35;;
40286;SDS011;25998;46.604;13.610;2022-11-13T15:14:39;21.33;;;18.38;;
40286;SDS011;25998;46.604;13.610;2022-11-13T15:17:51;20.42;;;17.98;;
40286;SDS011;25998;46.604;13.610;2022-11-13T15:21:02;19.55;;;17.27;;
40286;SDS011;25998;46.604;13.610;2022-11-13T15:24:13;20.73;;;18.55;;
40286;SDS011;25998;46.604;13.610;2022-11-13T15:27:24;17.48;;;15.68;;
40286;SDS011;25998;46.604;13.610;2022-11-13T15:30:34;20.45;;;17.30;;
40286;SDS011;25998;46.604;13.610;2022-11-13T15:33:46;18.90;;;16.90;;
40286;SDS011;25998;46.604;13.610;2022-11-13T15:36:57;20.05;;;17.88;;
40286;SDS011;25998;46.604;13.610;2022-11-13T15:40:08;18.55;;;16.63;;
40286;SDS011;25998;46.604;13.610;2022-11-13T15:43:19;20.60;;;17.55;;
40286;SDS011;25998;46.604;13.610;2022-11-13T15:46:30;30.73;;;25.52;;
40286;SDS011;25998;46.604;13.610;2022-11-13T15:49:41;32.20;;;25.60;;
40286;SDS011;25998;46.604;13.610;2022-11-13T15:52:52;28.55;;;20.92;;
40286;SDS011;25998;46.604;13.610;2022-11-13T15:56:03;29.95;;;24.45;;
40286;SDS011;25998;46.604;13.610;2022-11-13T15:59:15;22.17;;;17.42;;
40286;SDS011;25998;46.604;13.610;2022-11-13T16:02:26;20.02;;;17.40;;
40286;SDS011;25998;46.604;13.610;2022-11-13T16:05:37;20.20;;;17.67;;
40286;SDS011;25998;46.604;13.610;2022-11-13T16:08:48;21.35;;;17.95;;
40286;SDS011;25998;46.604;13.610;2022-11-13T16:11:59;24.52;;;18.73;;
40286;SDS011;25998;46.604;13.610;2022-11-13T16:15:14;22.25;;;18.92;;
40286;SDS011;25998;46.604;13.610;2022-11-13T16:18:28;21.25;;;17.80;;
40286;SDS011;25998;46.604;13.610;2022-11-13T16:21:40;22.48;;;20.00;;
40286;SDS011;25998;46.604;13.610;2022-11-13T16:24:51;21.60;;;19.02;;
40286;SDS011;25998;46.604;13.610;2022-11-13T16:28:02;21.27;;;18.50;;
40286;SDS011;25998;46.604;13.610;2022-11-13T16:31:13;21.27;;;18.92;;
40286;SDS011;25998;46.604;13.610;2022-11-13T16:34:25;21.67;;;17.60;;
40286;SDS011;25998;46.604;13.610;2022-11-13T16:37:35;20.60;;;17.85;;
40286;SDS011;25998;46.604;13.610;2022-11-13T16:40:46;19.40;;;17.20;;
40286;SDS011;25998;46.604;13.610;2022-11-13T16:43:57;20.52;;;17.65;;
40286;SDS011;25998;46.604;13.610;2022-11-13T16:47:21;23.05;;;20.48;;
40286;SDS011;25998;46.604;13.610;2022-11-13T16:50:33;21.17;;;18.40;;
40286;SDS011;25998;46.604;13.610;2022-11-13T16:53:45;20.73;;;17.50;;
40286;SDS011;25998;46.604;13.610;2022-11-13T16:56:56;30.98;;;24.83;;
40286;SDS011;25998;46.604;13.610;2022-11-13T17:00:10;19.98;;;17.50;;
40286;SDS011;25998;46.604;13.610;2022-11-13T17:03:22;21.48;;;18.27;;
40286;SDS011;25998;46.604;13.610;2022-11-13T17:06:34;21.25;;;18.42;;
40286;SDS011;25998;46.604;13.610;2022-11-13T17:09:45;21.88;;;18.77;;
40286;SDS011;25998;46.604;13.610;2022-11-13T17:12:56;20.55;;;17.85;;
40286;SDS011;25998;46.604;13.610;2022-11-13T17:16:08;21.38;;;18.95;;
40286;SDS011;25998;46.604;13.610;2022-11-13T17:19:22;22.02;;;19.27;;
40286;SDS011;25998;46.604;13.610;2022-11-13T17:22:32;22.42;;;18.65;;
40286;SDS011;25998;46.604;13.610;2022-11-13T17:25:43;18.90;;;16.90;;
40286;SDS011;25998;46.604;13.610;2022-11-13T17:28:54;19.02;;;17.02;;
40286;SDS011;25998;46.604;13.610;2022-11-13T17:32:07;22.35;;;19.95;;
40286;SDS011;25998;46.604;13.610;2022-11-13T17:35:18;19.45;;;17.35;;
40286;SDS011;25998;46.604;13.610;2022-11-13T17:38:28;23.48;;;17.55;;
40286;SDS011;25998;46.604;13.610;2022-11-13T17:41:40;19.23;;;17.10;;
40286;SDS011;25998;46.604;13.610;2022-11-13T17:44:50;21.10;;;17.95;;
40286;SDS011;25998;46.604;13.610;2022-11-13T17:48:01;22.73;;;18.10;;
40286;SDS011;25998;46.604;13.610;2022-11-13T17:51:13;25.50;;;21.45;;
40286;SDS011;25998;46.604;13.610;2022-11-13T17:54:24;21.90;;;19.55;;
40286;SDS011;25998;46.604;13.610;2022-11-13T17:57:38;22.15;;;18.40;;
40286;SDS011;25998;46.604;13.610;2022-11-13T18:00:49;22.33;;;19.27;;
40286;SDS011;25998;46.604;13.610;2022-11-13T18:04:00;23.35;;;19.90;;
40286;SDS011;25998;46.604;13.610;2022-11-13T18:07:11;22.35;;;19.35;;
40286;SDS011;25998;46.604;13.610;2022-11-13T18:10:21;21.00;;;18.30;;
40286;SDS011;25998;46.604;13.610;2022-11-13T18:13:32;22.02;;;18.15;;
40286;SDS011;25998;46.604;13.610;2022-11-13T18:16:43;23.20;;;19.25;;
40286;SDS011;25998;46.604;13.610;2022-11-13T18:19:54;22.92;;;18.20;;
40286;SDS011;25998;46.604;13.610;2022-11-13T18:23:06;21.45;;;17.85;;
40286;SDS011;25998;46.604;13.610;2022-11-13T18:26:17;20.38;;;17.05;;
40286;SDS011;25998;46.604;13.610;2022-11-13T18:29:28;18.77;;;16.77;;
40286;SDS011;25998;46.604;13.610;2022-11-13T18:32:39;20.73;;;17.88;;
40286;SDS011;25998;46.604;13.610;2022-11-13T18:35:53;21.35;;;17.45;;
40286;SDS011;25998;46.604;13.610;2022-11-13T18:39:05;21.27;;;17.90;;
40286;SDS011;25998;46.604;13.610;2022-11-13T18:42:16;23.20;;;18.88;;
40286;SDS011;25998;46.604;13.610;2022-11-13T18:45:27;20.80;;;18.52;;
40286;SDS011;25998;46.604;13.610;2022-11-13T18:48:38;24.60;;;19.42;;
40286;SDS011;25998;46.604;13.610;2022-11-13T18:51:50;20.63;;;18.42;;
40286;SDS011;25998;46.604;13.610;2022-11-13T18:55:01;20.65;;;17.85;;
40286;SDS011;25998;46.604;13.610;2022-11-13T18:58:12;23.00;;;19.13;;
40286;SDS011;25998;46.604;13.610;2022-11-13T19:01:24;18.60;;;16.55;;
40286;SDS011;25998;46.604;13.610;2022-11-13T19:04:36;22.80;;;18.73;;
40286;SDS011;25998;46.604;13.610;2022-11-13T19:07:47;20.92;;;17.58;;
40286;SDS011;25998;46.604;13.610;2022-11-13T19:11:19;19.88;;;17.75;;
40286;SDS011;25998;46.604;13.610;2022-11-13T19:14:29;21.98;;;19.33;;
40286;SDS011;25998;46.604;13.610;2022-11-13T19:17:40;21.35;;;19.05;;
40286;SDS011;25998;46.604;13.610;2022-11-13T19:20:51;23.35;;;19.83;;
40286;SDS011;25998;46.604;13.610;2022-11-13T19:24:01;21.60;;;18.45;;
40286;SDS011;25998;46.604;13.610;2022-11-13T19:27:12;21.13;;;18.40;;
40286;SDS011;25998;46.604;13.610;2022-11-13T19:30:23;21.85;;;19.50;;
40286;SDS011;25998;46.604;13.610;2022-11-13T19:33:34;19.23;;;17.13;;
40286;SDS011;25998;46.604;13.610;2022-11-13T19:36:45;21.52;;;19.02;;
40286;SDS011;25998;46.604;13.610;2022-11-13T19:39:58;25.15;;;20.92;;
40286;SDS011;25998;46.604;13.610;2022-11-13T19:43:09;27.23;;;23.08;;
40286;SDS011;25998;46.604;13.610;2022-11-13T19:46:20;29.73;;;25.17;;
40286;SDS011;25998;46.604;13.610;2022-11-13T19:49:31;25.20;;;19.60;;
40286;SDS011;25998;46.604;13.610;2022-11-13T19:52:43;26.65;;;20.80;;
40286;SDS011;25998;46.604;13.610;2022-11-13T19:55:54;24.85;;;20.15;;
40286;SDS011;25998;46.604;13.610;2022-11-13T19:59:07;27.55;;;20.58;;
40286;SDS011;25998;46.604;13.610;2022-11-13T20:02:20;23.65;;;20.38;;
40286;SDS011;25998;46.604;13.610;2022-11-13T20:05:31;24.63;;;20.33;;
40286;SDS011;25998;46.604;13.610;2022-11-13T20:08:42;24.85;;;20.63;;
40286;SDS011;25998;46.604;13.610;2022-11-13T20:11:53;24.08;;;20.27;;
40286;SDS011;25998;46.604;13.610;2022-11-13T20:15:03;25.98;;;21.05;;
40286;SDS011;25998;46.604;13.610;2022-11-13T20:18:14;24.65;;;20.35;;
40286;SDS011;25998;46.604;13.610;2022-11-13T20:21:26;24.98;;;21.35;;
40286;SDS011;25998;46.604;13.610;2022-11-13T20:24:39;29.40;;;21.67;;
40286;SDS011;25998;46.604;13.610;2022-11-13T20:27:50;25.40;;;21.27;;
40286;SDS011;25998;46.604;13.610;2022-11-13T20:31:04;26.25;;;21.88;;
40286;SDS011;25998;46.604;13.610;2022-11-13T20:34:17;27.00;;;21.80;;
40286;SDS011;25998;46.604;13.610;2022-11-13T20:37:28;25.95;;;20.65;;
40286;SDS011;25998;46.604;13.610;2022-11-13T20:40:39;28.85;;;22.75;;
40286;SDS011;25998;46.604;13.610;2022-11-13T20:43:50;22.85;;;20.45;;
40286;SDS011;25998;46.604;13.610;2022-11-13T20:47:01;26.25;;;23.10;;
40286;SDS011;25998;46.604;13.610;2022-11-13T20:50:12;27.13;;;21.08;;
40286;SDS011;25998;46.604;13.610;2022-11-13T20:53:23;26.17;;;21.23;;
40286;SDS011;25998;46.604;13.610;2022-11-13T20:56:34;24.48;;;21.40;;
40286;SDS011;25998;46.604;13.610;2022-11-13T20:59:45;34.13;;;27.25;;
40286;SDS011;25998;46.604;13.610;2022-11-13T21:02:56;35.97;;;27.02;;
40286;SDS011;25998;46.604;13.610;2022-11-13T21:06:10;29.23;;;25.85;;
40286;SDS011;25998;46.604;13.610;2022-11-13T21:09:23;34.60;;;27.23;;
40286;SDS011;25998;46.604;13.610;2022-11-13T21:12:34;41.47;;;28.40;;
40286;SDS011;25998;46.604;13.610;2022-11-13T21:15:45;30.70;;;25.30;;